createdAt,value
2022-10-22T00:01:55.924Z,4.47
2022-10-22T00:04:58.934Z,4.10
2022-10-22T00:08:01.443Z,4.32
2022-10-22T00:11:12.679Z,4.30
2022-10-22T00:14:16.252Z,4.32
2022-10-22T00:17:19.075Z,4.55
2022-10-22T00:20:22.795Z,4.15
2022-10-22T00:23:25.768Z,3.97
2022-10-22T00:26:28.475Z,4.50
2022-10-22T00:29:31.725Z,4.25
2022-10-22T00:32:34.306Z,4.22
2022-10-22T00:35:37.115Z,4.10
2022-10-22T00:38:39.546Z,3.80
2022-10-22T00:41:43.872Z,4.37
2022-10-22T00:45:07.065Z,3.83
2022-10-22T00:48:09.905Z,3.83
2022-10-22T00:51:12.392Z,4.05
2022-10-22T00:54:15.209Z,4.07
2022-10-22T00:57:18.852Z,4.40
2022-10-22T01:00:22.076Z,3.97
2022-10-22T01:03:24.920Z,3.70
2022-10-22T01:06:31.231Z,3.58
2022-10-22T01:09:48.104Z,3.62
2022-10-22T01:13:05.984Z,3.30
2022-10-22T01:16:27.017Z,3.78
2022-10-22T01:19:40.284Z,3.65
2022-10-22T01:22:52.289Z,4.22
2022-10-22T01:26:09.567Z,4.03
2022-10-22T01:29:33.773Z,3.97
2022-10-22T01:32:58.561Z,3.55
2022-10-22T01:36:01.537Z,3.55
2022-10-22T01:39:05.348Z,4.35
2022-10-22T01:42:08.101Z,4.25
2022-10-22T01:45:12.922Z,4.37
2022-10-22T01:48:40.205Z,4.20
2022-10-22T01:52:04.500Z,3.42
2022-10-22T01:55:30.306Z,4.40
2022-10-22T01:58:39.417Z,4.20
2022-10-22T02:01:49.707Z,3.13
2022-10-22T02:05:03.175Z,3.83
2022-10-22T02:08:22.309Z,3.40
2022-10-22T02:11:25.228Z,3.80
2022-10-22T02:14:29.758Z,3.50
2022-10-22T02:17:36.840Z,3.50
2022-10-22T02:20:41.784Z,3.72
2022-10-22T02:23:44.990Z,3.78
2022-10-22T02:27:06.563Z,3.62
2022-10-22T02:30:19.024Z,4.47
2022-10-22T02:33:31.009Z,4.03
2022-10-22T02:36:34.147Z,3.90
2022-10-22T02:39:37.218Z,4.30
2022-10-22T02:42:41.256Z,3.83
2022-10-22T02:45:44.320Z,4.70
2022-10-22T02:48:47.305Z,3.83
2022-10-22T02:51:49.924Z,4.05
2022-10-22T02:54:52.793Z,4.32
2022-10-22T02:57:55.323Z,3.80
2022-10-22T03:00:58.261Z,3.67
2022-10-22T03:04:00.846Z,4.00
2022-10-22T03:07:03.887Z,4.65
2022-10-22T03:10:07.174Z,4.80
2022-10-22T03:13:09.996Z,5.50
2022-10-22T03:16:12.531Z,5.43
2022-10-22T03:19:15.594Z,5.10
2022-10-22T03:22:23.724Z,5.55
2022-10-22T03:25:27.335Z,4.82
2022-10-22T03:28:31.594Z,4.82
2022-10-22T03:31:34.477Z,4.62
2022-10-22T03:34:37.071Z,3.83
2022-10-22T03:37:40.381Z,4.40
2022-10-22T03:40:44.026Z,4.00
2022-10-22T03:43:50.206Z,3.97
2022-10-22T03:46:52.671Z,3.85
2022-10-22T03:49:55.614Z,3.53
2022-10-22T03:52:58.305Z,4.40
2022-10-22T03:56:01.206Z,3.72
2022-10-22T03:59:04.517Z,4.00
2022-10-22T04:02:07.861Z,4.45
2022-10-22T04:05:10.857Z,4.80
2022-10-22T04:08:15.659Z,4.20
2022-10-22T04:11:18.678Z,4.35
2022-10-22T04:14:21.265Z,4.05
2022-10-22T04:17:24.214Z,4.37
2022-10-22T04:20:26.781Z,4.83
2022-10-22T04:23:29.577Z,4.72
2022-10-22T04:26:32.423Z,4.50
2022-10-22T04:29:35.280Z,4.18
2022-10-22T04:32:37.889Z,4.40
2022-10-22T04:35:40.691Z,4.20
2022-10-22T04:38:45.404Z,4.00
2022-10-22T04:41:48.300Z,4.10
2022-10-22T04:44:50.881Z,4.22
2022-10-22T04:47:53.691Z,4.53
2022-10-22T04:50:58.341Z,4.30
2022-10-22T04:54:01.218Z,4.30
2022-10-22T04:57:03.906Z,4.72
2022-10-22T05:00:07.598Z,4.25
2022-10-22T05:03:10.129Z,4.60
2022-10-22T05:09:21.345Z,4.28
2022-10-22T05:12:24.364Z,4.85
2022-10-22T05:15:27.021Z,4.25
2022-10-22T05:18:29.921Z,4.60
2022-10-22T05:21:32.969Z,4.50
2022-10-22T05:24:37.193Z,4.12
2022-10-22T05:27:39.978Z,4.60
2022-10-22T05:30:43.060Z,4.55
2022-10-22T05:33:46.790Z,4.47
2022-10-22T05:36:49.720Z,4.17
2022-10-22T05:40:01.759Z,4.22
2022-10-22T05:43:15.183Z,4.37
2022-10-22T05:46:22.467Z,4.22
2022-10-22T05:49:25.615Z,4.72
2022-10-22T05:52:28.098Z,4.23
2022-10-22T05:55:31.000Z,5.10
2022-10-22T05:58:34.187Z,4.85
2022-10-22T06:01:39.205Z,5.03
2022-10-22T06:04:42.278Z,5.12
2022-10-22T06:07:44.837Z,4.90
2022-10-22T06:10:47.725Z,5.05
2022-10-22T06:13:51.255Z,5.03
2022-10-22T06:16:55.008Z,4.18
2022-10-22T06:19:58.123Z,4.57
2022-10-22T06:23:01.094Z,4.87
2022-10-22T06:26:04.731Z,4.30
2022-10-22T06:29:08.119Z,4.60
2022-10-22T06:32:11.274Z,4.68
2022-10-22T06:35:14.323Z,5.37
2022-10-22T06:38:17.064Z,4.87
2022-10-22T06:41:21.335Z,5.28
2022-10-22T06:44:25.462Z,5.28
2022-10-22T06:47:28.285Z,5.05
2022-10-22T06:50:31.267Z,5.55
2022-10-22T06:53:34.765Z,4.93
2022-10-22T06:56:37.287Z,4.80
2022-10-22T06:59:40.406Z,5.22
2022-10-22T07:02:43.448Z,5.78
2022-10-22T07:05:46.516Z,6.30
2022-10-22T07:08:49.176Z,5.77
2022-10-22T07:11:52.043Z,5.45
2022-10-22T07:14:54.616Z,6.22
2022-10-22T07:17:57.987Z,4.90
2022-10-22T07:21:01.243Z,4.85
2022-10-22T07:24:04.282Z,5.37
2022-10-22T07:27:09.449Z,5.45
2022-10-22T07:30:14.758Z,5.55
2022-10-22T07:33:17.435Z,5.15
2022-10-22T07:36:20.430Z,6.07
2022-10-22T07:39:25.787Z,5.57
2022-10-22T07:45:36.045Z,4.37
2022-10-22T07:48:39.379Z,5.50
2022-10-22T07:51:42.051Z,5.22
2022-10-22T07:54:46.038Z,5.40
2022-10-22T07:57:48.548Z,5.57
2022-10-22T08:00:52.082Z,5.75
2022-10-22T08:03:54.934Z,5.47
2022-10-22T08:06:57.739Z,5.90
2022-10-22T08:10:00.501Z,4.87
2022-10-22T08:13:03.271Z,5.82
2022-10-22T08:16:06.214Z,6.10
2022-10-22T08:19:08.917Z,5.50
2022-10-22T08:22:11.681Z,5.78
2022-10-22T08:25:15.410Z,5.40
2022-10-22T08:28:21.166Z,6.55
2022-10-22T08:31:24.781Z,5.65
2022-10-22T08:34:27.590Z,6.28
2022-10-22T08:37:30.180Z,5.68
2022-10-22T08:40:35.520Z,5.47
2022-10-22T08:44:17.152Z,5.53
2022-10-22T08:47:32.070Z,5.35
2022-10-22T08:50:41.436Z,7.03
2022-10-22T08:54:00.992Z,6.75
2022-10-22T08:58:16.201Z,5.62
2022-10-22T09:01:23.396Z,5.68
2022-10-22T09:04:30.816Z,6.50
2022-10-22T09:07:33.640Z,6.20
2022-10-22T09:10:38.987Z,6.10
2022-10-22T09:13:44.060Z,6.45
2022-10-22T09:17:18.918Z,6.95
2022-10-22T09:20:28.777Z,6.43
2022-10-22T09:24:03.726Z,5.80
2022-10-22T09:27:28.000Z,6.03
2022-10-22T09:30:34.399Z,6.75
2022-10-22T09:33:37.122Z,6.05
2022-10-22T09:36:39.605Z,6.10
2022-10-22T09:39:48.280Z,5.93
2022-10-22T09:42:51.189Z,5.60
2022-10-22T09:46:02.355Z,6.10
2022-10-22T09:49:10.567Z,6.00
2022-10-22T09:52:28.412Z,5.65
2022-10-22T09:55:31.055Z,5.62
2022-10-22T09:58:43.990Z,6.00
2022-10-22T10:01:46.421Z,5.35
2022-10-22T10:04:51.611Z,6.22
2022-10-22T10:07:54.176Z,5.70
2022-10-22T10:11:01.589Z,5.55
2022-10-22T10:14:24.675Z,5.90
2022-10-22T10:17:37.347Z,5.70
2022-10-22T10:20:41.330Z,6.53
2022-10-22T10:24:02.988Z,5.70
2022-10-22T10:27:10.306Z,6.60
2022-10-22T10:30:17.654Z,6.43
2022-10-22T10:33:34.326Z,6.37
2022-10-22T10:36:49.498Z,5.60
2022-10-22T10:40:29.088Z,6.22
2022-10-22T10:43:50.375Z,6.03
2022-10-22T10:46:52.777Z,5.83
2022-10-22T10:50:09.712Z,5.97
2022-10-22T10:53:25.007Z,5.65
2022-10-22T10:56:49.739Z,6.60
2022-10-22T11:00:02.714Z,5.93
2022-10-22T11:03:26.855Z,6.27
2022-10-22T11:06:34.437Z,6.75
2022-10-22T11:09:42.836Z,6.80
2022-10-22T11:12:48.950Z,6.03
2022-10-22T11:16:01.358Z,6.57
2022-10-22T11:19:55.706Z,6.20
2022-10-22T11:23:19.944Z,6.65
2022-10-22T11:26:50.897Z,6.40
2022-10-22T11:30:02.642Z,6.62
2022-10-22T11:33:14.795Z,6.22
2022-10-22T11:36:19.776Z,6.40
2022-10-22T11:39:43.058Z,6.32
2022-10-22T11:42:48.502Z,7.05
2022-10-22T11:45:58.577Z,6.82
2022-10-22T11:49:04.685Z,6.57
2022-10-22T11:52:24.240Z,6.83
2022-10-22T11:55:32.383Z,6.78
2022-10-22T11:58:44.695Z,7.00
2022-10-22T12:01:48.055Z,6.32
2022-10-22T12:04:51.195Z,6.28
2022-10-22T12:07:56.994Z,6.73
2022-10-22T12:11:06.031Z,5.32
2022-10-22T12:14:29.212Z,6.30
2022-10-22T12:17:32.097Z,6.72
2022-10-22T12:20:34.666Z,6.18
2022-10-22T12:23:37.608Z,6.77
2022-10-22T12:26:40.086Z,6.87
2022-10-22T12:29:42.897Z,6.68
2022-10-22T12:32:45.987Z,6.28
2022-10-22T12:35:51.574Z,6.68
2022-10-22T12:38:54.222Z,6.33
2022-10-22T12:41:56.973Z,6.55
2022-10-22T12:44:59.519Z,6.90
2022-10-22T12:48:05.499Z,7.20
2022-10-22T12:51:09.539Z,6.90
2022-10-22T12:54:33.059Z,6.47
2022-10-22T12:57:35.552Z,6.75
2022-10-22T13:00:39.263Z,7.35
2022-10-22T13:03:45.018Z,6.90
2022-10-22T13:06:52.809Z,7.22
2022-10-22T13:09:59.846Z,6.67
2022-10-22T13:13:04.107Z,7.80
2022-10-22T13:16:15.073Z,7.22
2022-10-22T13:19:44.481Z,7.45
2022-10-22T13:23:02.693Z,7.65
2022-10-22T13:26:15.285Z,7.20
2022-10-22T13:29:22.119Z,6.53
2022-10-22T13:32:31.292Z,7.12
2022-10-22T13:35:38.236Z,7.05
2022-10-22T13:38:41.707Z,7.25
2022-10-22T13:41:44.422Z,5.80
2022-10-22T13:44:47.359Z,6.72
2022-10-22T13:47:52.281Z,6.50
2022-10-22T13:50:55.758Z,6.60
2022-10-22T13:53:58.482Z,6.20
2022-10-22T13:57:01.328Z,7.27
2022-10-22T14:00:04.156Z,6.82
2022-10-22T14:03:20.528Z,7.55
2022-10-22T14:06:23.670Z,7.10
2022-10-22T14:09:26.282Z,7.25
2022-10-22T14:12:28.943Z,7.07
2022-10-22T14:15:31.549Z,7.22
2022-10-22T14:18:34.918Z,6.62
2022-10-22T14:21:38.063Z,6.97
2022-10-22T14:24:40.864Z,7.28
2022-10-22T14:27:45.273Z,6.97
2022-10-22T14:30:48.158Z,8.10
2022-10-22T14:33:50.817Z,8.32
2022-10-22T14:36:53.506Z,8.30
2022-10-22T14:40:01.650Z,8.43
2022-10-22T14:43:05.599Z,7.17
2022-10-22T14:46:09.142Z,7.87
2022-10-22T14:49:11.903Z,7.68
2022-10-22T14:52:15.050Z,7.57
2022-10-22T14:55:20.868Z,9.68
2022-10-22T14:58:23.457Z,8.37
2022-10-22T15:01:26.230Z,8.88
2022-10-22T15:04:30.537Z,8.98
2022-10-22T15:07:33.379Z,8.40
2022-10-22T15:10:36.143Z,8.30
2022-10-22T15:13:41.367Z,7.53
2022-10-22T15:16:43.897Z,8.02
2022-10-22T15:19:46.875Z,8.10
2022-10-22T15:22:49.552Z,8.15
2022-10-22T15:25:52.357Z,8.35
2022-10-22T15:28:55.145Z,8.00
2022-10-22T15:31:59.428Z,7.95
2022-10-22T15:35:02.350Z,8.05
2022-10-22T15:38:09.173Z,8.30
2022-10-22T15:41:13.536Z,7.43
2022-10-22T15:44:18.817Z,8.70
2022-10-22T15:47:22.737Z,8.35
2022-10-22T15:50:28.067Z,7.78
2022-10-22T15:53:30.753Z,7.55
2022-10-22T15:56:33.583Z,9.02
2022-10-22T15:59:36.479Z,8.00
2022-10-22T16:02:39.795Z,8.55
2022-10-22T16:05:51.466Z,9.25
2022-10-22T16:08:54.895Z,9.20
2022-10-22T16:11:57.979Z,9.80
2022-10-22T16:15:00.520Z,9.87
2022-10-22T16:18:03.326Z,9.02
2022-10-22T16:21:06.028Z,9.27
2022-10-22T16:24:09.411Z,9.27
2022-10-22T16:27:12.357Z,9.68
2022-10-22T16:30:16.309Z,9.80
2022-10-22T16:33:19.073Z,9.57
2022-10-22T16:36:22.469Z,9.95
2022-10-22T16:39:25.335Z,11.20
2022-10-22T16:42:28.322Z,10.98
2022-10-22T16:45:31.263Z,12.13
2022-10-22T16:48:34.455Z,13.00
2022-10-22T16:51:37.049Z,12.80
2022-10-22T16:54:40.083Z,13.45
2022-10-22T16:57:50.055Z,13.35
2022-10-22T17:00:53.143Z,14.03
2022-10-22T17:03:58.706Z,14.60
2022-10-22T17:07:01.780Z,14.85
2022-10-22T17:10:05.374Z,14.02
2022-10-22T17:13:08.468Z,14.75
2022-10-22T17:16:13.285Z,13.63
2022-10-22T17:19:16.422Z,13.18
2022-10-22T17:22:19.139Z,16.05
2022-10-22T17:25:24.399Z,14.65
2022-10-22T17:28:28.051Z,13.65
2022-10-22T17:31:33.149Z,13.50
2022-10-22T17:34:35.689Z,14.77
2022-10-22T17:37:39.512Z,16.08
2022-10-22T17:40:42.466Z,15.55
2022-10-22T17:46:54.115Z,16.13
2022-10-22T17:49:58.151Z,16.67
2022-10-22T17:53:00.950Z,17.12
2022-10-22T17:56:07.117Z,17.30
2022-10-22T17:59:13.172Z,17.17
2022-10-22T18:02:18.082Z,16.63
2022-10-22T18:05:24.494Z,16.50
2022-10-22T18:08:27.308Z,16.15
2022-10-22T18:11:32.517Z,16.05
2022-10-22T18:14:35.467Z,17.48
2022-10-22T18:17:39.704Z,12.57
2022-10-22T18:20:42.687Z,20.10
2022-10-22T18:23:46.355Z,18.62
2022-10-22T18:26:49.198Z,16.40
2022-10-22T18:29:52.529Z,17.10
2022-10-22T18:32:55.438Z,18.33
2022-10-22T18:36:07.605Z,19.62
2022-10-22T18:39:15.849Z,18.27
2022-10-22T18:42:19.748Z,18.70
2022-10-22T18:45:23.152Z,15.73
2022-10-22T18:48:26.504Z,15.83
2022-10-22T18:51:33.191Z,16.37
2022-10-22T18:54:37.446Z,18.67
2022-10-22T18:57:46.142Z,16.45
2022-10-22T19:00:50.215Z,17.05
2022-10-22T19:03:53.091Z,15.30
2022-10-22T19:06:56.834Z,15.50
2022-10-22T19:09:59.721Z,16.83
2022-10-22T19:13:04.519Z,15.90
2022-10-22T19:16:20.404Z,15.43
2022-10-22T19:19:24.446Z,16.23
2022-10-22T19:22:27.579Z,16.30
2022-10-22T19:25:30.754Z,14.68
2022-10-22T19:28:33.903Z,13.55
2022-10-22T19:31:38.142Z,14.73
2022-10-22T19:34:41.197Z,15.87
2022-10-22T19:37:48.250Z,15.98
2022-10-22T19:40:51.379Z,16.60
2022-10-22T19:43:55.575Z,15.65
2022-10-22T19:46:58.717Z,14.45
2022-10-22T19:50:01.833Z,14.53
2022-10-22T19:53:04.579Z,14.43
2022-10-22T19:56:09.248Z,13.50
2022-10-22T19:59:12.147Z,13.85
2022-10-22T20:02:16.027Z,14.40
2022-10-22T20:05:19.106Z,12.97
2022-10-22T20:08:21.779Z,12.77
2022-10-22T20:11:26.898Z,11.38
2022-10-22T20:14:29.394Z,12.23
2022-10-22T20:17:32.838Z,12.60
2022-10-22T20:20:37.789Z,12.00
2022-10-22T20:23:41.725Z,11.80
2022-10-22T20:26:46.259Z,12.15
2022-10-22T20:29:49.123Z,12.18
2022-10-22T20:32:51.646Z,12.55
2022-10-22T20:36:07.696Z,13.23
2022-10-22T20:39:13.165Z,12.18
2022-10-22T20:42:16.549Z,13.40
2022-10-22T20:45:19.288Z,13.80
2022-10-22T20:48:32.721Z,14.18
2022-10-22T20:51:36.474Z,14.03
2022-10-22T20:54:42.555Z,14.07
2022-10-22T20:57:46.732Z,14.57
2022-10-22T21:00:50.434Z,13.15
2022-10-22T21:03:53.410Z,14.63
2022-10-22T21:06:57.544Z,15.07
2022-10-22T21:10:07.437Z,14.32
2022-10-22T21:13:11.119Z,14.60
2022-10-22T21:16:14.860Z,15.15
2022-10-22T21:19:19.300Z,15.05
2022-10-22T21:22:21.851Z,16.00
2022-10-22T21:25:24.668Z,15.75
2022-10-22T21:28:27.307Z,15.20
2022-10-22T21:31:30.216Z,15.32
2022-10-22T21:34:38.057Z,15.43
2022-10-22T21:37:42.150Z,14.63
2022-10-22T21:40:44.815Z,14.87
2022-10-22T21:43:48.028Z,16.25
2022-10-22T21:46:50.754Z,16.05
2022-10-22T21:49:53.921Z,16.92
2022-10-22T21:52:56.462Z,16.50
2022-10-22T21:55:59.906Z,17.08
2022-10-22T21:59:03.898Z,16.02
2022-10-22T22:02:06.835Z,16.77
2022-10-22T22:05:09.766Z,17.83
2022-10-22T22:08:12.335Z,16.63
2022-10-22T22:11:18.097Z,16.85
2022-10-22T22:14:20.699Z,17.62
2022-10-22T22:17:23.548Z,18.02
2022-10-22T22:20:26.154Z,17.85
2022-10-22T22:23:29.004Z,18.03
2022-10-22T22:26:31.563Z,17.55
2022-10-22T22:29:34.638Z,19.20
2022-10-22T22:32:37.286Z,18.42
2022-10-22T22:38:47.529Z,16.57
2022-10-22T22:41:50.716Z,18.37
2022-10-22T22:44:53.263Z,17.80
2022-10-22T22:47:56.150Z,18.00
2022-10-22T22:51:01.966Z,18.27
2022-10-22T22:54:05.064Z,18.77
2022-10-22T22:57:07.552Z,18.30
2022-10-22T23:00:11.137Z,18.67
2022-10-22T23:03:14.220Z,18.12
2022-10-22T23:06:17.035Z,19.52
2022-10-22T23:12:28.925Z,16.95
2022-10-22T23:15:31.432Z,19.20
2022-10-22T23:18:35.167Z,17.95
2022-10-22T23:21:39.919Z,19.37
2022-10-22T23:24:42.862Z,18.07
2022-10-22T23:27:45.532Z,18.08
2022-10-22T23:30:48.940Z,18.33
2022-10-22T23:33:51.473Z,18.15
2022-10-22T23:36:55.094Z,20.20
2022-10-22T23:39:57.855Z,19.07
2022-10-22T23:43:01.027Z,18.87
2022-10-22T23:46:08.931Z,18.70
2022-10-22T23:49:11.964Z,18.87
2022-10-22T23:52:14.596Z,18.60
2022-10-22T23:55:20.770Z,17.57
2022-10-22T23:58:23.572Z,18.98
